createdAt,value
2023-04-09T00:00:03.022Z,102289.06
2023-04-09T00:02:29.681Z,102283.91
2023-04-09T00:04:56.328Z,102289.94
2023-04-09T00:07:22.906Z,102288.28
2023-04-09T00:09:49.488Z,102281.41
2023-04-09T00:12:16.132Z,102283.09
2023-04-09T00:14:42.764Z,102284.00
2023-04-09T00:17:09.414Z,102286.59
2023-04-09T00:19:36.643Z,102281.41
2023-04-09T00:22:03.235Z,102281.47
2023-04-09T00:24:29.872Z,102284.88
2023-04-09T00:26:57.209Z,102289.25
2023-04-09T00:29:23.878Z,102289.28
2023-04-09T00:31:50.858Z,102288.38
2023-04-09T00:34:17.609Z,102282.31
2023-04-09T00:36:44.225Z,102287.53
2023-04-09T00:39:11.438Z,102291.06
2023-04-09T00:41:38.028Z,102279.84
2023-04-09T00:44:04.766Z,102278.94
2023-04-09T00:46:32.618Z,102293.66
2023-04-09T00:48:59.898Z,102296.22
2023-04-09T00:51:26.908Z,102291.91
2023-04-09T00:53:54.509Z,102280.72
2023-04-09T00:56:23.604Z,102285.00
2023-04-09T00:58:51.152Z,102288.47
2023-04-09T01:01:17.999Z,102287.63
2023-04-09T01:03:45.125Z,102297.97
2023-04-09T01:06:46.196Z,102296.31
2023-04-09T01:09:22.221Z,102292.84
2023-04-09T01:12:09.564Z,102298.06
2023-04-09T01:14:54.223Z,102291.16
2023-04-09T01:17:45.784Z,102293.84
2023-04-09T01:20:22.618Z,102291.25
2023-04-09T01:23:01.466Z,102292.16
2023-04-09T01:25:34.214Z,102294.75
2023-04-09T01:28:22.845Z,102289.63
2023-04-09T01:30:53.090Z,102288.75
2023-04-09T01:33:20.722Z,102290.47
2023-04-09T01:35:49.961Z,102289.63
2023-04-09T01:38:19.858Z,102286.19
2023-04-09T01:40:47.193Z,102287.06
2023-04-09T01:43:15.109Z,102283.63
2023-04-09T01:45:43.987Z,102278.47
2023-04-09T01:48:11.598Z,102279.31
2023-04-09T01:50:38.383Z,102276.72
2023-04-09T01:53:05.967Z,102276.72
2023-04-09T01:55:32.578Z,102273.31
2023-04-09T01:57:59.195Z,102281.91
2023-04-09T02:00:34.817Z,102276.78
2023-04-09T02:03:18.600Z,102272.47
2023-04-09T02:06:15.977Z,102267.31
2023-04-09T02:08:47.838Z,102272.50
2023-04-09T02:11:16.336Z,102269.97
2023-04-09T02:13:44.316Z,102275.13
2023-04-09T02:16:13.998Z,102272.56
2023-04-09T02:18:40.659Z,102271.72
2023-04-09T02:21:07.391Z,102265.72
2023-04-09T02:23:33.988Z,102269.19
2023-04-09T02:26:01.609Z,102266.63
2023-04-09T02:28:28.378Z,102257.97
2023-04-09T02:30:55.375Z,102258.84
2023-04-09T02:33:22.786Z,102258.91
2023-04-09T02:35:49.403Z,102258.88
2023-04-09T02:38:16.247Z,102261.47
2023-04-09T02:40:43.539Z,102258.06
2023-04-09T02:43:10.755Z,102254.63
2023-04-09T02:45:37.696Z,102245.19
2023-04-09T02:48:07.078Z,102244.31
2023-04-09T02:50:33.776Z,102246.91
2023-04-09T02:53:00.427Z,102242.59
2023-04-09T02:55:27.239Z,102244.31
2023-04-09T02:57:53.873Z,102246.97
2023-04-09T03:00:20.538Z,102242.63
2023-04-09T03:02:47.519Z,102240.06
2023-04-09T03:05:14.299Z,102246.09
2023-04-09T03:07:40.877Z,102233.16
2023-04-09T03:10:08.000Z,102240.94
2023-04-09T03:12:34.580Z,102234.03
2023-04-09T03:15:01.201Z,102236.66
2023-04-09T03:17:27.913Z,102227.16
2023-04-09T03:19:54.553Z,102231.50
2023-04-09T03:22:21.226Z,102227.22
2023-04-09T03:24:47.834Z,102220.31
2023-04-09T03:27:14.531Z,102234.09
2023-04-09T03:29:41.137Z,102227.22
2023-04-09T03:32:07.822Z,102220.34
2023-04-09T03:34:34.433Z,102217.78
2023-04-09T03:37:01.131Z,102226.38
2023-04-09T03:39:30.992Z,102222.09
2023-04-09T03:41:59.070Z,102228.13
2023-04-09T03:44:25.709Z,102222.97
2023-04-09T03:46:53.038Z,102229.00
2023-04-09T03:49:19.831Z,102226.44
2023-04-09T03:51:46.416Z,102221.28
2023-04-09T03:54:13.977Z,102226.44
2023-04-09T03:56:40.611Z,102225.56
2023-04-09T03:59:07.275Z,102224.72
2023-04-09T04:01:35.008Z,102230.75
2023-04-09T04:04:02.072Z,102232.47
2023-04-09T04:06:28.924Z,102234.22
2023-04-09T04:08:55.796Z,102238.50
2023-04-09T04:11:22.359Z,102223.91
2023-04-09T04:13:48.988Z,102234.25
2023-04-09T04:16:16.150Z,102229.06
2023-04-09T04:18:42.805Z,102226.50
2023-04-09T04:21:14.983Z,102230.81
2023-04-09T04:23:41.886Z,102228.25
2023-04-09T04:26:12.539Z,102223.06
2023-04-09T04:28:39.987Z,102221.38
2023-04-09T04:31:13.571Z,102229.13
2023-04-09T04:33:41.595Z,102229.13
2023-04-09T04:36:13.108Z,102224.81
2023-04-09T04:38:41.736Z,102232.56
2023-04-09T04:41:08.720Z,102224.84
2023-04-09T04:43:35.556Z,102225.69
2023-04-09T04:46:02.342Z,102230.88
2023-04-09T04:48:29.651Z,102231.75
2023-04-09T04:51:00.514Z,102228.28
2023-04-09T04:53:27.589Z,102225.72
2023-04-09T04:55:54.701Z,102228.31
2023-04-09T04:58:21.283Z,102231.75
2023-04-09T05:00:48.005Z,102230.88
2023-04-09T05:03:15.550Z,102234.31
2023-04-09T05:05:42.247Z,102230.03
2023-04-09T05:08:09.050Z,102228.31
2023-04-09T05:10:35.752Z,102230.03
2023-04-09T05:13:02.552Z,102226.56
2023-04-09T05:15:29.204Z,102230.00
2023-04-09T05:17:56.053Z,102226.56
2023-04-09T05:20:22.932Z,102230.88
2023-04-09T05:22:49.769Z,102234.34
2023-04-09T05:25:16.668Z,102245.53
2023-04-09T05:27:43.752Z,102242.94
2023-04-09T05:30:10.859Z,102243.81
2023-04-09T05:32:37.976Z,102237.75
2023-04-09T05:35:05.246Z,102239.47
2023-04-09T05:37:31.872Z,102232.59
2023-04-09T05:39:58.599Z,102236.03
2023-04-09T05:42:25.186Z,102235.16
2023-04-09T05:44:51.742Z,102232.50
2023-04-09T05:47:18.331Z,102236.81
2023-04-09T05:49:44.897Z,102239.38
2023-04-09T05:52:11.520Z,102240.19
2023-04-09T05:54:38.199Z,102233.28
2023-04-09T05:57:04.866Z,102234.97
2023-04-09T05:59:33.911Z,102233.22
2023-04-09T06:02:00.540Z,102238.34
2023-04-09T06:04:28.146Z,102233.16
2023-04-09T06:06:55.977Z,102234.00
2023-04-09T06:09:22.569Z,102232.22
2023-04-09T06:11:49.147Z,102229.59
2023-04-09T06:14:18.681Z,102237.34
2023-04-09T06:16:45.260Z,102227.81
2023-04-09T06:19:12.611Z,102232.16
2023-04-09T06:21:40.848Z,102232.13
2023-04-09T06:24:07.685Z,102238.09
2023-04-09T06:26:34.580Z,102235.50
2023-04-09T06:29:01.183Z,102241.53
2023-04-09T06:31:27.841Z,102238.97
2023-04-09T06:33:54.974Z,102243.16
2023-04-09T06:36:22.124Z,102243.13
2023-04-09T06:38:48.722Z,102243.03
2023-04-09T06:41:15.594Z,102241.19
2023-04-09T06:43:42.492Z,102235.97
2023-04-09T06:46:09.440Z,102243.66
2023-04-09T06:48:36.257Z,102241.84
2023-04-09T06:51:03.143Z,102246.06
2023-04-09T06:53:29.803Z,102252.03
2023-04-09T06:55:57.227Z,102252.88
2023-04-09T06:58:23.979Z,102242.44
2023-04-09T07:00:50.616Z,102251.00
2023-04-09T07:03:17.375Z,102255.19
2023-04-09T07:05:44.138Z,102250.75
2023-04-09T07:08:11.863Z,102253.22
2023-04-09T07:10:38.851Z,102253.13
2023-04-09T07:13:05.582Z,102259.91
2023-04-09T07:15:32.370Z,102263.28
2023-04-09T07:17:59.017Z,102259.72
2023-04-09T07:20:25.642Z,102263.06
2023-04-09T07:22:52.556Z,102256.03
2023-04-09T07:25:19.226Z,102259.38
2023-04-09T07:27:46.198Z,102264.56
2023-04-09T07:30:12.885Z,102259.22
2023-04-09T07:32:39.574Z,102254.03
2023-04-09T07:35:08.164Z,102253.06
2023-04-09T07:37:34.772Z,102258.09
2023-04-09T07:40:04.134Z,102260.66
2023-04-09T07:42:31.175Z,102264.00
2023-04-09T07:44:57.808Z,102266.69
2023-04-09T07:47:24.500Z,102264.16
2023-04-09T07:49:51.497Z,102263.13
2023-04-09T07:52:18.208Z,102258.59
2023-04-09T07:54:44.818Z,102256.66
2023-04-09T07:57:11.406Z,102259.13
2023-04-09T07:59:38.140Z,102258.16
2023-04-09T08:02:07.605Z,102255.41
2023-04-09T08:04:34.547Z,102257.06
2023-04-09T08:07:02.306Z,102261.47
2023-04-09T08:09:28.889Z,102262.09
2023-04-09T08:11:56.022Z,102252.59
2023-04-09T08:14:22.628Z,102258.78
2023-04-09T08:16:50.437Z,102250.97
2023-04-09T08:19:17.756Z,102256.91
2023-04-09T08:21:44.689Z,102254.16
2023-04-09T08:24:12.061Z,102251.34
2023-04-09T08:26:39.982Z,102252.03
2023-04-09T08:29:07.904Z,102249.59
2023-04-09T08:31:34.880Z,102242.59
2023-04-09T08:34:01.594Z,102255.34
2023-04-09T08:36:29.038Z,102251.75
2023-04-09T08:38:56.725Z,102248.25
2023-04-09T08:41:24.918Z,102249.91
2023-04-09T08:43:58.303Z,102248.94
2023-04-09T08:46:28.860Z,102252.44
2023-04-09T08:48:56.022Z,102257.63
2023-04-09T08:51:24.549Z,102259.13
2023-04-09T08:54:01.347Z,102260.88
2023-04-09T08:56:31.273Z,102259.19
2023-04-09T08:58:57.858Z,102259.94
2023-04-09T09:01:29.421Z,102257.22
2023-04-09T09:04:07.603Z,102254.53
2023-04-09T09:06:38.935Z,102255.09
2023-04-09T09:09:12.778Z,102258.31
2023-04-09T09:11:46.459Z,102246.16
2023-04-09T09:14:15.021Z,102248.72
2023-04-09T09:16:45.131Z,102247.50
2023-04-09T09:19:27.192Z,102241.34
2023-04-09T09:22:06.271Z,102241.13
2023-04-09T09:24:34.097Z,102244.56
2023-04-09T09:27:02.964Z,102244.25
2023-04-09T09:29:29.750Z,102243.34
2023-04-09T09:31:56.759Z,102234.56
2023-04-09T09:34:25.031Z,102223.13
2023-04-09T09:36:51.680Z,102217.84
2023-04-09T09:39:18.562Z,102224.34
2023-04-09T09:41:47.564Z,102215.94
2023-04-09T09:44:31.496Z,102219.72
2023-04-09T09:46:59.008Z,102221.84
2023-04-09T09:49:25.603Z,102221.09
2023-04-09T09:51:53.557Z,102223.75
2023-04-09T09:54:25.836Z,102220.84
2023-04-09T09:56:55.952Z,102218.28
2023-04-09T09:59:32.345Z,102215.72
2023-04-09T10:02:06.212Z,102219.25
2023-04-09T10:04:36.261Z,102213.50
2023-04-09T10:07:05.905Z,102207.28
2023-04-09T10:09:36.357Z,102195.59
2023-04-09T10:12:07.133Z,102201.53
2023-04-09T10:14:36.007Z,102196.44
2023-04-09T10:17:04.404Z,102200.66
2023-04-09T10:19:43.243Z,102197.69
2023-04-09T10:22:16.324Z,102194.78
2023-04-09T10:24:43.258Z,102193.03
2023-04-09T10:27:13.650Z,102192.81
2023-04-09T10:29:47.323Z,102191.84
2023-04-09T10:32:23.908Z,102199.56
2023-04-09T10:34:50.991Z,102193.50
2023-04-09T10:37:23.092Z,102189.19
2023-04-09T10:39:51.730Z,102191.38
2023-04-09T10:42:49.358Z,102180.03
2023-04-09T10:45:16.988Z,102174.81
2023-04-09T10:47:44.399Z,102170.22
2023-04-09T10:50:19.552Z,102169.00
2023-04-09T10:52:46.935Z,102179.84
2023-04-09T10:55:36.813Z,102177.91
2023-04-09T10:58:10.456Z,102172.88
2023-04-09T11:00:41.478Z,102171.41
2023-04-09T11:03:21.999Z,102167.97
2023-04-09T11:05:52.885Z,102173.56
2023-04-09T11:08:19.931Z,102168.97
2023-04-09T11:10:50.513Z,102158.38
2023-04-09T11:13:20.914Z,102158.16
2023-04-09T11:15:47.695Z,102164.00
2023-04-09T11:18:15.704Z,102154.13
2023-04-09T11:20:42.610Z,102152.50
2023-04-09T11:23:10.906Z,102150.78
2023-04-09T11:25:40.026Z,102145.34
2023-04-09T11:28:08.657Z,102144.88
2023-04-09T11:30:37.652Z,102137.56
2023-04-09T11:33:04.446Z,102143.25
2023-04-09T11:35:35.696Z,102134.91
2023-04-09T11:38:08.953Z,102133.59
2023-04-09T11:40:36.399Z,102134.44
2023-04-09T11:43:03.347Z,102127.13
2023-04-09T11:45:32.449Z,102128.78
2023-04-09T11:47:59.361Z,102126.34
2023-04-09T11:50:26.386Z,102129.00
2023-04-09T11:52:52.957Z,102129.78
2023-04-09T11:55:37.724Z,102131.81
2023-04-09T11:58:11.922Z,102124.06
2023-04-09T12:00:41.082Z,102120.66
2023-04-09T12:03:08.401Z,102124.78
2023-04-09T12:05:35.825Z,102116.09
2023-04-09T12:08:08.797Z,102116.81
2023-04-09T12:10:37.718Z,102127.13
2023-04-09T12:13:07.054Z,102111.25
2023-04-09T12:15:38.655Z,102117.00
2023-04-09T12:18:09.085Z,102122.03
2023-04-09T12:20:44.264Z,102119.69
2023-04-09T12:23:12.315Z,102117.88
2023-04-09T12:25:41.169Z,102112.03
2023-04-09T12:28:09.831Z,102114.91
2023-04-09T12:30:36.657Z,102110.53
2023-04-09T12:33:04.964Z,102118.31
2023-04-09T12:35:32.361Z,102109.91
2023-04-09T12:38:01.927Z,102118.53
2023-04-09T12:40:28.621Z,102115.94
2023-04-09T12:42:57.653Z,102114.06
2023-04-09T12:45:24.315Z,102108.75
2023-04-09T12:47:51.497Z,102110.53
2023-04-09T12:50:18.127Z,102113.06
2023-04-09T12:52:45.740Z,102118.31
2023-04-09T12:55:16.202Z,102119.22
2023-04-09T12:57:44.980Z,102120.09
2023-04-09T13:00:12.498Z,102120.84
2023-04-09T13:02:39.586Z,102117.59
2023-04-09T13:05:06.792Z,102112.44
2023-04-09T13:07:33.569Z,102110.59
2023-04-09T13:10:00.162Z,102099.25
2023-04-09T13:12:27.317Z,102096.72
2023-04-09T13:14:55.096Z,102099.47
2023-04-09T13:17:22.340Z,102096.78
2023-04-09T13:19:49.745Z,102104.69
2023-04-09T13:22:16.366Z,102100.50
2023-04-09T13:24:43.574Z,102100.53
2023-04-09T13:27:11.583Z,102100.50
2023-04-09T13:29:38.735Z,102095.72
2023-04-09T13:32:08.508Z,102091.34
2023-04-09T13:34:35.682Z,102092.00
2023-04-09T13:37:05.537Z,102091.09
2023-04-09T13:39:32.277Z,102086.00
2023-04-09T13:42:00.040Z,102084.56
2023-04-09T13:44:28.670Z,102083.75
2023-04-09T13:46:55.579Z,102090.00
2023-04-09T13:49:22.377Z,102092.69
2023-04-09T13:51:49.399Z,102087.66
2023-04-09T13:54:16.406Z,102084.03
2023-04-09T13:56:44.576Z,102084.03
2023-04-09T13:59:11.623Z,102076.84
2023-04-09T14:01:38.352Z,102075.88
2023-04-09T14:04:05.086Z,102073.00
2023-04-09T14:06:31.803Z,102071.31
2023-04-09T14:08:58.493Z,102069.28
2023-04-09T14:11:25.172Z,102060.75
2023-04-09T14:13:51.963Z,102068.63
2023-04-09T14:16:19.396Z,102055.53
2023-04-09T14:18:46.390Z,102055.44
2023-04-09T14:21:15.644Z,102057.16
2023-04-09T14:23:42.258Z,102050.03
2023-04-09T14:26:09.048Z,102052.34
2023-04-09T14:28:36.120Z,102039.13
2023-04-09T14:31:02.707Z,102037.19
2023-04-09T14:33:31.234Z,102040.66
2023-04-09T14:35:59.034Z,102035.22
2023-04-09T14:38:26.007Z,102033.41
2023-04-09T14:40:52.875Z,102045.88
2023-04-09T14:43:19.534Z,102042.44
2023-04-09T14:45:46.527Z,102042.09
2023-04-09T14:48:13.134Z,102041.88
2023-04-09T14:50:39.989Z,102042.50
2023-04-09T14:53:07.614Z,102037.13
2023-04-09T14:55:34.715Z,102029.44
2023-04-09T14:58:04.405Z,102025.69
2023-04-09T15:00:32.089Z,102018.81
2023-04-09T15:02:59.187Z,102023.50
2023-04-09T15:05:26.708Z,102023.28
2023-04-09T15:07:54.773Z,102029.38
2023-04-09T15:10:21.496Z,102024.34
2023-04-09T15:12:48.076Z,102015.75
2023-04-09T15:15:14.807Z,102016.53
2023-04-09T15:17:41.708Z,102017.56
2023-04-09T15:20:09.201Z,102014.38
2023-04-09T15:22:36.014Z,102008.53
2023-04-09T15:25:02.650Z,102021.66
2023-04-09T15:27:31.512Z,102013.75
2023-04-09T15:29:58.280Z,102015.47
2023-04-09T15:32:24.906Z,102019.72
2023-04-09T15:34:51.599Z,102015.53
2023-04-09T15:37:18.245Z,102011.22
2023-04-09T15:39:44.896Z,102016.47
2023-04-09T15:42:13.459Z,102019.06
2023-04-09T15:44:41.593Z,102012.09
2023-04-09T15:47:08.664Z,102016.25
2023-04-09T15:49:37.006Z,102013.19
2023-04-09T15:52:04.187Z,102009.81
2023-04-09T15:54:31.080Z,102015.81
2023-04-09T15:56:57.962Z,102008.00
2023-04-09T15:59:24.604Z,102012.31
2023-04-09T16:01:51.344Z,102010.59
2023-04-09T16:04:18.005Z,102016.66
2023-04-09T16:06:44.645Z,102007.78
2023-04-09T16:09:11.541Z,102009.59
2023-04-09T16:11:38.126Z,102005.06
2023-04-09T16:14:04.782Z,102009.44
2023-04-09T16:16:31.497Z,101998.19
2023-04-09T16:18:58.180Z,102001.75
2023-04-09T16:21:24.731Z,101997.25
2023-04-09T16:23:52.524Z,101996.38
2023-04-09T16:26:19.167Z,101978.31
2023-04-09T16:28:45.858Z,101980.97
2023-04-09T16:31:12.553Z,101976.72
2023-04-09T16:33:39.220Z,101976.00
2023-04-09T16:36:06.421Z,101965.59
2023-04-09T16:38:33.148Z,101963.78
2023-04-09T16:40:59.901Z,101969.03
2023-04-09T16:43:26.765Z,101965.88
2023-04-09T16:45:53.656Z,101964.94
2023-04-09T16:48:22.815Z,101969.28
2023-04-09T16:50:49.401Z,101961.56
2023-04-09T16:53:16.170Z,101961.69
2023-04-09T16:55:44.587Z,101966.91
2023-04-09T16:58:11.351Z,101969.56
2023-04-09T17:00:40.112Z,101965.28
2023-04-09T17:03:07.115Z,101959.31
2023-04-09T17:05:33.924Z,101975.91
2023-04-09T17:08:01.276Z,101975.00
2023-04-09T17:10:28.267Z,101967.16
2023-04-09T17:12:54.931Z,101963.03
2023-04-09T17:15:22.776Z,101963.13
2023-04-09T17:17:51.440Z,101964.84
2023-04-09T17:20:18.174Z,101964.09
2023-04-09T17:22:44.953Z,101969.41
2023-04-09T17:25:11.578Z,101969.53
2023-04-09T17:27:38.185Z,101967.91
2023-04-09T17:30:05.457Z,101967.13
2023-04-09T17:32:32.110Z,101959.44
2023-04-09T17:34:59.752Z,101964.84
2023-04-09T17:37:28.926Z,101965.78
2023-04-09T17:39:55.637Z,101961.53
2023-04-09T17:42:23.503Z,101973.66
2023-04-09T17:44:50.161Z,101960.69
2023-04-09T17:47:17.217Z,101964.19
2023-04-09T17:49:44.369Z,101965.03
2023-04-09T17:52:11.019Z,101967.78
2023-04-09T17:54:38.858Z,101974.09
2023-04-09T17:57:07.367Z,101975.88
2023-04-09T17:59:34.834Z,101981.22
2023-04-09T18:02:02.368Z,101979.50
2023-04-09T18:04:29.380Z,101977.69
2023-04-09T18:06:56.449Z,101979.59
2023-04-09T18:09:23.026Z,101977.19
2023-04-09T18:11:53.562Z,101975.47
2023-04-09T18:14:20.426Z,101974.69
2023-04-09T18:16:47.445Z,101972.28
2023-04-09T18:19:14.130Z,101973.19
2023-04-09T18:21:40.806Z,101972.47
2023-04-09T18:24:08.088Z,101989.13
2023-04-09T18:26:34.726Z,101990.09
2023-04-09T18:29:01.934Z,101994.50
2023-04-09T18:31:28.795Z,101989.50
2023-04-09T18:33:55.839Z,101987.78
2023-04-09T18:36:22.461Z,101983.56
2023-04-09T18:38:49.161Z,101983.66
2023-04-09T18:41:26.144Z,101988.16
2023-04-09T18:43:53.268Z,101988.16
2023-04-09T18:46:19.981Z,101983.97
2023-04-09T18:48:49.241Z,101986.69
2023-04-09T18:51:16.878Z,101985.00
2023-04-09T18:53:44.215Z,101986.81
2023-04-09T18:56:11.610Z,101987.78
2023-04-09T18:58:38.957Z,101993.91
2023-04-09T19:01:12.309Z,101988.78
2023-04-09T19:03:40.477Z,101992.34
2023-04-09T19:06:18.453Z,101992.38
2023-04-09T19:08:46.312Z,101993.34
2023-04-09T19:11:13.619Z,101993.41
2023-04-09T19:13:40.693Z,101990.00
2023-04-09T19:16:09.505Z,101980.56
2023-04-09T19:18:37.401Z,101984.19
2023-04-09T19:21:05.594Z,101994.59
2023-04-09T19:23:34.375Z,101993.88
2023-04-09T19:26:02.042Z,101991.34
2023-04-09T19:28:29.130Z,101999.25
2023-04-09T19:31:00.062Z,102002.78
2023-04-09T19:33:27.984Z,102001.16
2023-04-09T19:35:55.461Z,102002.06
2023-04-09T19:38:24.646Z,102002.91
2023-04-09T19:40:51.593Z,102000.41
2023-04-09T19:43:18.207Z,101996.22
2023-04-09T19:45:45.039Z,101991.84
2023-04-09T19:48:12.456Z,101991.13
2023-04-09T19:50:41.266Z,101994.63
2023-04-09T19:53:07.926Z,102002.53
2023-04-09T19:55:34.977Z,102003.44
2023-04-09T19:58:02.634Z,101995.69
2023-04-09T20:00:29.484Z,101994.06
2023-04-09T20:02:57.321Z,101996.69
2023-04-09T20:05:24.196Z,101986.34
2023-04-09T20:07:52.907Z,101988.13
2023-04-09T20:10:19.964Z,101996.03
2023-04-09T20:12:50.508Z,102002.19
2023-04-09T20:15:20.540Z,101997.03
2023-04-09T20:17:48.371Z,101991.13
2023-04-09T20:20:18.053Z,101992.84
2023-04-09T20:22:47.592Z,101987.75
2023-04-09T20:25:14.466Z,101983.41
2023-04-09T20:27:41.276Z,101984.25
2023-04-09T20:30:08.521Z,101986.91
2023-04-09T20:32:36.923Z,101986.09
2023-04-09T20:35:04.513Z,101989.59
2023-04-09T20:37:31.403Z,101982.59
2023-04-09T20:39:59.636Z,101969.69
2023-04-09T20:42:26.603Z,101961.94
2023-04-09T20:44:53.430Z,101968.03
2023-04-09T20:47:22.149Z,101970.66
2023-04-09T20:49:51.075Z,101967.28
2023-04-09T20:52:17.987Z,101966.59
2023-04-09T20:54:45.516Z,101958.03
2023-04-09T20:57:13.790Z,101952.88
2023-04-09T20:59:40.760Z,101959.88
2023-04-09T21:02:08.964Z,101960.03
2023-04-09T21:04:35.659Z,101958.28
2023-04-09T21:07:02.668Z,101956.53
2023-04-09T21:09:29.739Z,101959.13
2023-04-09T21:11:56.397Z,101960.03
2023-04-09T21:14:23.161Z,101959.22
2023-04-09T21:16:49.911Z,101956.72
2023-04-09T21:19:18.996Z,101957.59
2023-04-09T21:21:46.318Z,101958.56
2023-04-09T21:24:13.520Z,101960.38
2023-04-09T21:26:50.966Z,101961.31
2023-04-09T21:29:20.972Z,101957.81
2023-04-09T21:31:48.633Z,101952.63
2023-04-09T21:34:15.790Z,101949.22
2023-04-09T21:36:42.443Z,101952.72
2023-04-09T21:39:09.604Z,101948.47
2023-04-09T21:41:36.749Z,101952.81
2023-04-09T21:44:08.316Z,101941.66
2023-04-09T21:46:37.149Z,101947.72
2023-04-09T21:49:04.442Z,101934.81
2023-04-09T21:51:32.345Z,101932.25
2023-04-09T21:54:04.192Z,101928.81
2023-04-09T21:56:32.023Z,101925.44
2023-04-09T21:58:58.726Z,101924.66
2023-04-09T22:01:29.332Z,101924.63
2023-04-09T22:03:57.911Z,101933.44
2023-04-09T22:06:25.165Z,101939.53
2023-04-09T22:08:56.013Z,101949.03
2023-04-09T22:11:28.389Z,101949.03
2023-04-09T22:13:56.107Z,101957.72
2023-04-09T22:16:26.053Z,101956.81
2023-04-09T22:18:54.499Z,101970.69
2023-04-09T22:21:21.664Z,101965.41
2023-04-09T22:23:48.423Z,101973.28
2023-04-09T22:26:15.103Z,101975.03
2023-04-09T22:28:41.710Z,101969.91
2023-04-09T22:31:08.409Z,101978.63
2023-04-09T22:33:35.084Z,101974.44
2023-04-09T22:36:01.945Z,101982.25
2023-04-09T22:38:28.678Z,101984.03
2023-04-09T22:40:55.907Z,101978.88
2023-04-09T22:43:22.889Z,101979.69
2023-04-09T22:45:51.735Z,101988.38
2023-04-09T22:48:19.439Z,101978.06
2023-04-09T22:50:47.134Z,101978.94
2023-04-09T22:53:20.933Z,101971.13
2023-04-09T22:55:51.156Z,101978.13
2023-04-09T22:58:18.389Z,101974.72
2023-04-09T23:00:45.399Z,101978.16
2023-04-09T23:03:12.142Z,101981.59
2023-04-09T23:05:39.975Z,101979.94
2023-04-09T23:08:06.704Z,101979.97
2023-04-09T23:10:34.236Z,101979.09
2023-04-09T23:13:00.979Z,101981.72
2023-04-09T23:15:29.135Z,101973.97
2023-04-09T23:17:56.238Z,101976.56
2023-04-09T23:20:23.226Z,101973.09
2023-04-09T23:22:50.068Z,101973.94
2023-04-09T23:25:16.980Z,101983.50
2023-04-09T23:27:44.155Z,101980.06
2023-04-09T23:30:11.382Z,101974.06
2023-04-09T23:32:38.182Z,101970.63
2023-04-09T23:35:05.158Z,101970.63
2023-04-09T23:37:32.183Z,101968.94
2023-04-09T23:39:58.807Z,101970.72
2023-04-09T23:42:26.858Z,101965.50
2023-04-09T23:44:53.431Z,101962.88
2023-04-09T23:47:22.666Z,101957.69
2023-04-09T23:49:49.297Z,101955.94
2023-04-09T23:52:16.172Z,101952.47
2023-04-09T23:54:49.256Z,101945.63
2023-04-09T23:57:16.542Z,101942.22
2023-04-09T23:59:43.151Z,101944.81
